sensor_id;sensor_type;location;lat;lon;timestamp;P1;durP1;ratioP1;P2;durP2;ratioP2
1402;SDS011;696;48.546;9.896;2022-09-01T00:02:04;9.68;;;5.78;;
1402;SDS011;696;48.546;9.896;2022-09-01T00:04:32;7.70;;;4.63;;
1402;SDS011;696;48.546;9.896;2022-09-01T00:07:03;9.57;;;6.63;;
1402;SDS011;696;48.546;9.896;2022-09-01T00:09:31;8.32;;;5.32;;
1402;SDS011;696;48.546;9.896;2022-09-01T00:11:57;12.77;;;7.63;;
1402;SDS011;696;48.546;9.896;2022-09-01T00:14:24;9.07;;;5.95;;
1402;SDS011;696;48.546;9.896;2022-09-01T00:16:50;12.02;;;7.22;;
1402;SDS011;696;48.546;9.896;2022-09-01T00:19:16;11.15;;;7.25;;
1402;SDS011;696;48.546;9.896;2022-09-01T00:21:42;12.38;;;7.35;;
1402;SDS011;696;48.546;9.896;2022-09-01T00:24:09;12.93;;;8.27;;
1402;SDS011;696;48.546;9.896;2022-09-01T00:26:35;12.98;;;7.43;;
1402;SDS011;696;48.546;9.896;2022-09-01T00:29:00;15.45;;;7.78;;
1402;SDS011;696;48.546;9.896;2022-09-01T00:31:26;18.35;;;9.27;;
1402;SDS011;696;48.546;9.896;2022-09-01T00:33:52;14.77;;;9.23;;
1402;SDS011;696;48.546;9.896;2022-09-01T00:36:18;15.10;;;7.82;;
1402;SDS011;696;48.546;9.896;2022-09-01T00:38:44;13.75;;;8.50;;
1402;SDS011;696;48.546;9.896;2022-09-01T00:41:10;16.88;;;9.48;;
1402;SDS011;696;48.546;9.896;2022-09-01T00:46:20;17.42;;;9.10;;
1402;SDS011;696;48.546;9.896;2022-09-01T00:48:50;15.23;;;8.63;;
1402;SDS011;696;48.546;9.896;2022-09-01T00:51:20;15.10;;;9.25;;
1402;SDS011;696;48.546;9.896;2022-09-01T00:53:45;13.50;;;8.40;;
1402;SDS011;696;48.546;9.896;2022-09-01T00:56:11;14.90;;;7.63;;
1402;SDS011;696;48.546;9.896;2022-09-01T00:58:38;14.55;;;7.70;;
1402;SDS011;696;48.546;9.896;2022-09-01T01:01:05;28.08;;;9.02;;
1402;SDS011;696;48.546;9.896;2022-09-01T01:03:31;15.10;;;8.25;;
1402;SDS011;696;48.546;9.896;2022-09-01T01:05:58;14.05;;;6.90;;
1402;SDS011;696;48.546;9.896;2022-09-01T01:08:27;14.18;;;8.27;;
1402;SDS011;696;48.546;9.896;2022-09-01T01:10:58;12.95;;;6.63;;
1402;SDS011;696;48.546;9.896;2022-09-01T01:13:28;15.20;;;6.93;;
1402;SDS011;696;48.546;9.896;2022-09-01T01:15:56;13.30;;;6.85;;
1402;SDS011;696;48.546;9.896;2022-09-01T01:18:22;12.85;;;7.85;;
1402;SDS011;696;48.546;9.896;2022-09-01T01:20:53;13.80;;;7.43;;
1402;SDS011;696;48.546;9.896;2022-09-01T01:23:48;11.07;;;7.03;;
1402;SDS011;696;48.546;9.896;2022-09-01T01:26:18;13.23;;;7.22;;
1402;SDS011;696;48.546;9.896;2022-09-01T01:28:44;12.40;;;7.65;;
1402;SDS011;696;48.546;9.896;2022-09-01T01:31:13;11.40;;;6.70;;
1402;SDS011;696;48.546;9.896;2022-09-01T01:33:44;12.25;;;7.25;;
1402;SDS011;696;48.546;9.896;2022-09-01T01:36:22;11.45;;;7.05;;
1402;SDS011;696;48.546;9.896;2022-09-01T01:38:56;10.45;;;6.75;;
1402;SDS011;696;48.546;9.896;2022-09-01T01:41:26;12.27;;;6.72;;
1402;SDS011;696;48.546;9.896;2022-09-01T01:43:51;11.90;;;7.47;;
1402;SDS011;696;48.546;9.896;2022-09-01T01:46:17;15.23;;;8.48;;
1402;SDS011;696;48.546;9.896;2022-09-01T01:48:43;14.07;;;7.95;;
1402;SDS011;696;48.546;9.896;2022-09-01T01:51:09;15.57;;;8.40;;
1402;SDS011;696;48.546;9.896;2022-09-01T01:53:35;17.98;;;8.80;;
1402;SDS011;696;48.546;9.896;2022-09-01T01:56:01;13.88;;;7.88;;
1402;SDS011;696;48.546;9.896;2022-09-01T01:58:27;16.30;;;7.82;;
1402;SDS011;696;48.546;9.896;2022-09-01T02:00:56;13.43;;;7.38;;
1402;SDS011;696;48.546;9.896;2022-09-01T02:03:24;12.25;;;7.00;;
1402;SDS011;696;48.546;9.896;2022-09-01T02:05:53;12.38;;;7.07;;
1402;SDS011;696;48.546;9.896;2022-09-01T02:14:52;21.55;;;9.35;;
1402;SDS011;696;48.546;9.896;2022-09-01T02:17:19;15.85;;;8.77;;
1402;SDS011;696;48.546;9.896;2022-09-01T02:19:45;14.00;;;7.28;;
1402;SDS011;696;48.546;9.896;2022-09-01T02:22:11;14.88;;;8.52;;
1402;SDS011;696;48.546;9.896;2022-09-01T02:24:36;14.70;;;8.30;;
1402;SDS011;696;48.546;9.896;2022-09-01T02:27:02;13.90;;;9.10;;
1402;SDS011;696;48.546;9.896;2022-09-01T02:29:29;16.35;;;8.73;;
1402;SDS011;696;48.546;9.896;2022-09-01T02:31:55;16.80;;;8.27;;
1402;SDS011;696;48.546;9.896;2022-09-01T02:34:21;15.48;;;8.45;;
1402;SDS011;696;48.546;9.896;2022-09-01T02:36:50;14.90;;;8.57;;
1402;SDS011;696;48.546;9.896;2022-09-01T02:39:18;14.63;;;7.90;;
1402;SDS011;696;48.546;9.896;2022-09-01T02:41:52;17.77;;;9.02;;
1402;SDS011;696;48.546;9.896;2022-09-01T02:44:17;20.05;;;9.95;;
1402;SDS011;696;48.546;9.896;2022-09-01T02:46:45;16.85;;;9.13;;
1402;SDS011;696;48.546;9.896;2022-09-01T02:49:12;17.42;;;8.65;;
1402;SDS011;696;48.546;9.896;2022-09-01T02:51:41;16.50;;;9.10;;
1402;SDS011;696;48.546;9.896;2022-09-01T02:54:08;14.82;;;8.80;;
1402;SDS011;696;48.546;9.896;2022-09-01T02:56:33;17.58;;;9.13;;
1402;SDS011;696;48.546;9.896;2022-09-01T02:58:59;18.15;;;9.27;;
1402;SDS011;696;48.546;9.896;2022-09-01T03:01:29;15.70;;;8.68;;
1402;SDS011;696;48.546;9.896;2022-09-01T03:03:57;26.67;;;11.50;;
1402;SDS011;696;48.546;9.896;2022-09-01T03:06:27;14.10;;;8.10;;
1402;SDS011;696;48.546;9.896;2022-09-01T03:08:56;13.35;;;8.90;;
1402;SDS011;696;48.546;9.896;2022-09-01T03:11:24;16.20;;;8.95;;
1402;SDS011;696;48.546;9.896;2022-09-01T03:13:50;20.55;;;8.82;;
1402;SDS011;696;48.546;9.896;2022-09-01T03:16:16;18.40;;;9.05;;
1402;SDS011;696;48.546;9.896;2022-09-01T03:18:42;17.35;;;9.23;;
1402;SDS011;696;48.546;9.896;2022-09-01T03:21:09;14.45;;;7.55;;
1402;SDS011;696;48.546;9.896;2022-09-01T03:23:38;17.00;;;8.88;;
1402;SDS011;696;48.546;9.896;2022-09-01T03:26:04;16.67;;;8.65;;
1402;SDS011;696;48.546;9.896;2022-09-01T03:28:29;15.98;;;8.32;;
1402;SDS011;696;48.546;9.896;2022-09-01T03:30:56;14.27;;;7.88;;
1402;SDS011;696;48.546;9.896;2022-09-01T03:33:22;12.32;;;6.95;;
1402;SDS011;696;48.546;9.896;2022-09-01T03:35:49;13.65;;;7.25;;
1402;SDS011;696;48.546;9.896;2022-09-01T03:38:15;17.10;;;8.00;;
1402;SDS011;696;48.546;9.896;2022-09-01T03:40:45;11.88;;;7.55;;
1402;SDS011;696;48.546;9.896;2022-09-01T03:43:11;12.60;;;7.95;;
1402;SDS011;696;48.546;9.896;2022-09-01T03:45:38;13.38;;;8.18;;
1402;SDS011;696;48.546;9.896;2022-09-01T03:48:05;13.43;;;7.55;;
1402;SDS011;696;48.546;9.896;2022-09-01T03:50:33;12.65;;;7.07;;
1402;SDS011;696;48.546;9.896;2022-09-01T03:53:09;9.27;;;6.03;;
1402;SDS011;696;48.546;9.896;2022-09-01T03:55:40;11.90;;;6.20;;
1402;SDS011;696;48.546;9.896;2022-09-01T03:58:07;15.60;;;8.75;;
1402;SDS011;696;48.546;9.896;2022-09-01T04:00:35;18.20;;;7.38;;
1402;SDS011;696;48.546;9.896;2022-09-01T04:03:03;13.27;;;6.93;;
1402;SDS011;696;48.546;9.896;2022-09-01T04:05:32;19.30;;;7.82;;
1402;SDS011;696;48.546;9.896;2022-09-01T04:08:00;10.88;;;6.25;;
1402;SDS011;696;48.546;9.896;2022-09-01T04:10:27;10.82;;;6.72;;
1402;SDS011;696;48.546;9.896;2022-09-01T04:12:53;14.82;;;7.28;;
1402;SDS011;696;48.546;9.896;2022-09-01T04:15:22;11.57;;;6.63;;
1402;SDS011;696;48.546;9.896;2022-09-01T04:17:47;13.48;;;7.93;;
1402;SDS011;696;48.546;9.896;2022-09-01T04:20:31;11.45;;;6.72;;
1402;SDS011;696;48.546;9.896;2022-09-01T04:23:04;13.63;;;5.88;;
1402;SDS011;696;48.546;9.896;2022-09-01T04:25:35;13.07;;;7.38;;
1402;SDS011;696;48.546;9.896;2022-09-01T04:28:03;13.02;;;7.00;;
1402;SDS011;696;48.546;9.896;2022-09-01T04:30:37;10.50;;;6.00;;
1402;SDS011;696;48.546;9.896;2022-09-01T04:33:04;11.55;;;6.20;;
1402;SDS011;696;48.546;9.896;2022-09-01T04:35:30;11.80;;;7.20;;
1402;SDS011;696;48.546;9.896;2022-09-01T04:37:56;17.00;;;8.05;;
1402;SDS011;696;48.546;9.896;2022-09-01T04:40:22;14.88;;;7.50;;
1402;SDS011;696;48.546;9.896;2022-09-01T04:42:48;18.30;;;6.85;;
1402;SDS011;696;48.546;9.896;2022-09-01T04:45:13;10.77;;;7.25;;
1402;SDS011;696;48.546;9.896;2022-09-01T04:47:39;13.48;;;7.35;;
1402;SDS011;696;48.546;9.896;2022-09-01T04:50:09;16.48;;;7.53;;
1402;SDS011;696;48.546;9.896;2022-09-01T04:52:38;10.77;;;6.88;;
1402;SDS011;696;48.546;9.896;2022-09-01T04:55:06;13.93;;;7.13;;
1402;SDS011;696;48.546;9.896;2022-09-01T04:57:32;11.70;;;6.20;;
1402;SDS011;696;48.546;9.896;2022-09-01T04:59:59;11.57;;;7.00;;
1402;SDS011;696;48.546;9.896;2022-09-01T05:02:25;17.95;;;7.68;;
1402;SDS011;696;48.546;9.896;2022-09-01T05:04:53;12.27;;;6.72;;
1402;SDS011;696;48.546;9.896;2022-09-01T05:07:19;12.80;;;6.78;;
1402;SDS011;696;48.546;9.896;2022-09-01T05:09:45;11.27;;;5.53;;
1402;SDS011;696;48.546;9.896;2022-09-01T05:12:11;13.35;;;6.20;;
1402;SDS011;696;48.546;9.896;2022-09-01T05:14:40;9.43;;;5.82;;
1402;SDS011;696;48.546;9.896;2022-09-01T05:17:11;13.60;;;7.60;;
1402;SDS011;696;48.546;9.896;2022-09-01T05:19:38;10.65;;;5.72;;
1402;SDS011;696;48.546;9.896;2022-09-01T05:22:05;13.98;;;6.72;;
1402;SDS011;696;48.546;9.896;2022-09-01T05:24:34;8.23;;;5.63;;
1402;SDS011;696;48.546;9.896;2022-09-01T05:27:00;11.15;;;6.18;;
1402;SDS011;696;48.546;9.896;2022-09-01T05:29:26;10.32;;;7.07;;
1402;SDS011;696;48.546;9.896;2022-09-01T05:31:53;12.15;;;7.13;;
1402;SDS011;696;48.546;9.896;2022-09-01T05:34:23;17.75;;;7.93;;
1402;SDS011;696;48.546;9.896;2022-09-01T05:36:54;12.45;;;6.78;;
1402;SDS011;696;48.546;9.896;2022-09-01T05:39:21;9.73;;;6.47;;
1402;SDS011;696;48.546;9.896;2022-09-01T05:41:47;10.07;;;6.43;;
1402;SDS011;696;48.546;9.896;2022-09-01T05:44:14;9.35;;;6.72;;
1402;SDS011;696;48.546;9.896;2022-09-01T05:46:39;9.35;;;6.38;;
1402;SDS011;696;48.546;9.896;2022-09-01T05:49:06;10.73;;;6.82;;
1402;SDS011;696;48.546;9.896;2022-09-01T05:51:37;12.60;;;7.70;;
1402;SDS011;696;48.546;9.896;2022-09-01T05:54:05;14.07;;;6.30;;
1402;SDS011;696;48.546;9.896;2022-09-01T05:56:34;12.68;;;6.63;;
1402;SDS011;696;48.546;9.896;2022-09-01T05:59:02;8.57;;;5.88;;
1402;SDS011;696;48.546;9.896;2022-09-01T06:01:28;9.48;;;6.18;;
1402;SDS011;696;48.546;9.896;2022-09-01T06:03:56;10.45;;;4.90;;
1402;SDS011;696;48.546;9.896;2022-09-01T06:06:29;9.68;;;5.95;;
1402;SDS011;696;48.546;9.896;2022-09-01T06:09:07;11.65;;;5.70;;
1402;SDS011;696;48.546;9.896;2022-09-01T06:11:33;8.20;;;5.20;;
1402;SDS011;696;48.546;9.896;2022-09-01T06:13:59;8.85;;;5.22;;
1402;SDS011;696;48.546;9.896;2022-09-01T06:16:25;8.23;;;4.57;;
1402;SDS011;696;48.546;9.896;2022-09-01T06:18:52;7.90;;;4.70;;
1402;SDS011;696;48.546;9.896;2022-09-01T06:21:19;10.63;;;5.13;;
1402;SDS011;696;48.546;9.896;2022-09-01T06:23:46;12.18;;;5.18;;
1402;SDS011;696;48.546;9.896;2022-09-01T06:26:16;10.65;;;5.10;;
1402;SDS011;696;48.546;9.896;2022-09-01T06:28:42;9.48;;;5.43;;
1402;SDS011;696;48.546;9.896;2022-09-01T06:31:08;7.50;;;4.47;;
1402;SDS011;696;48.546;9.896;2022-09-01T06:33:34;7.90;;;4.65;;
1402;SDS011;696;48.546;9.896;2022-09-01T06:36:00;5.80;;;3.88;;
1402;SDS011;696;48.546;9.896;2022-09-01T06:38:27;7.05;;;4.95;;
1402;SDS011;696;48.546;9.896;2022-09-01T06:41:00;10.35;;;5.80;;
1402;SDS011;696;48.546;9.896;2022-09-01T06:45:54;12.68;;;6.18;;
1402;SDS011;696;48.546;9.896;2022-09-01T06:48:20;9.27;;;5.07;;
1402;SDS011;696;48.546;9.896;2022-09-01T06:50:47;8.52;;;5.32;;
1402;SDS011;696;48.546;9.896;2022-09-01T06:53:13;10.35;;;6.32;;
1402;SDS011;696;48.546;9.896;2022-09-01T06:55:42;8.20;;;5.22;;
1402;SDS011;696;48.546;9.896;2022-09-01T06:58:09;10.27;;;5.63;;
1402;SDS011;696;48.546;9.896;2022-09-01T07:00:36;9.93;;;5.30;;
1402;SDS011;696;48.546;9.896;2022-09-01T07:03:07;7.55;;;5.30;;
1402;SDS011;696;48.546;9.896;2022-09-01T07:05:41;11.00;;;5.65;;
1402;SDS011;696;48.546;9.896;2022-09-01T07:08:10;10.13;;;4.72;;
1402;SDS011;696;48.546;9.896;2022-09-01T07:10:55;10.48;;;4.97;;
1402;SDS011;696;48.546;9.896;2022-09-01T07:13:23;9.52;;;5.13;;
1402;SDS011;696;48.546;9.896;2022-09-01T07:15:50;9.90;;;5.32;;
1402;SDS011;696;48.546;9.896;2022-09-01T07:18:17;9.35;;;5.22;;
1402;SDS011;696;48.546;9.896;2022-09-01T07:20:49;8.60;;;4.80;;
1402;SDS011;696;48.546;9.896;2022-09-01T07:23:16;7.25;;;4.40;;
1402;SDS011;696;48.546;9.896;2022-09-01T07:25:43;9.85;;;4.45;;
1402;SDS011;696;48.546;9.896;2022-09-01T07:28:10;9.27;;;6.03;;
1402;SDS011;696;48.546;9.896;2022-09-01T07:30:47;8.43;;;4.80;;
1402;SDS011;696;48.546;9.896;2022-09-01T07:33:15;9.27;;;5.00;;
1402;SDS011;696;48.546;9.896;2022-09-01T07:35:44;10.52;;;5.15;;
1402;SDS011;696;48.546;9.896;2022-09-01T07:38:10;7.75;;;4.85;;
1402;SDS011;696;48.546;9.896;2022-09-01T07:40:38;6.43;;;4.10;;
1402;SDS011;696;48.546;9.896;2022-09-01T07:43:05;8.10;;;4.57;;
1402;SDS011;696;48.546;9.896;2022-09-01T07:45:42;7.93;;;4.32;;
1402;SDS011;696;48.546;9.896;2022-09-01T07:48:10;9.88;;;4.80;;
1402;SDS011;696;48.546;9.896;2022-09-01T07:50:40;9.23;;;5.30;;
1402;SDS011;696;48.546;9.896;2022-09-01T07:53:08;7.45;;;4.93;;
1402;SDS011;696;48.546;9.896;2022-09-01T07:55:38;7.80;;;4.20;;
1402;SDS011;696;48.546;9.896;2022-09-01T07:58:05;9.50;;;4.93;;
1402;SDS011;696;48.546;9.896;2022-09-01T08:00:30;7.35;;;3.72;;
1402;SDS011;696;48.546;9.896;2022-09-01T08:02:57;8.23;;;4.00;;
1402;SDS011;696;48.546;9.896;2022-09-01T08:05:23;9.10;;;4.22;;
1402;SDS011;696;48.546;9.896;2022-09-01T08:07:51;5.75;;;3.70;;
1402;SDS011;696;48.546;9.896;2022-09-01T08:10:16;7.75;;;4.20;;
1402;SDS011;696;48.546;9.896;2022-09-01T08:12:42;6.88;;;3.95;;
1402;SDS011;696;48.546;9.896;2022-09-01T08:15:07;8.38;;;3.65;;
1402;SDS011;696;48.546;9.896;2022-09-01T08:17:35;6.78;;;3.67;;
1402;SDS011;696;48.546;9.896;2022-09-01T08:20:01;4.63;;;3.80;;
1402;SDS011;696;48.546;9.896;2022-09-01T08:22:26;4.85;;;3.33;;
1402;SDS011;696;48.546;9.896;2022-09-01T08:24:52;4.72;;;3.35;;
1402;SDS011;696;48.546;9.896;2022-09-01T08:27:17;4.85;;;3.15;;
1402;SDS011;696;48.546;9.896;2022-09-01T08:29:43;3.92;;;2.63;;
1402;SDS011;696;48.546;9.896;2022-09-01T08:32:08;5.38;;;3.70;;
1402;SDS011;696;48.546;9.896;2022-09-01T08:34:35;6.43;;;3.88;;
1402;SDS011;696;48.546;9.896;2022-09-01T08:37:01;4.40;;;2.92;;
1402;SDS011;696;48.546;9.896;2022-09-01T08:39:27;11.60;;;3.40;;
1402;SDS011;696;48.546;9.896;2022-09-01T08:44:55;6.03;;;3.50;;
1402;SDS011;696;48.546;9.896;2022-09-01T08:47:25;5.10;;;2.83;;
1402;SDS011;696;48.546;9.896;2022-09-01T08:49:50;4.68;;;3.50;;
1402;SDS011;696;48.546;9.896;2022-09-01T08:55:25;7.95;;;3.40;;
1402;SDS011;696;48.546;9.896;2022-09-01T08:57:38;4.93;;;2.75;;
1402;SDS011;696;48.546;9.896;2022-09-01T09:00:05;4.95;;;2.67;;
1402;SDS011;696;48.546;9.896;2022-09-01T09:05:27;4.65;;;2.75;;
1402;SDS011;696;48.546;9.896;2022-09-01T09:15:57;7.28;;;3.25;;
1402;SDS011;696;48.546;9.896;2022-09-01T09:21:06;5.32;;;3.45;;
1402;SDS011;696;48.546;9.896;2022-09-01T09:23:39;4.82;;;2.97;;
1402;SDS011;696;48.546;9.896;2022-09-01T09:26:07;5.40;;;3.40;;
1402;SDS011;696;48.546;9.896;2022-09-01T09:28:32;5.32;;;3.45;;
1402;SDS011;696;48.546;9.896;2022-09-01T09:33:53;5.72;;;2.60;;
1402;SDS011;696;48.546;9.896;2022-09-01T09:36:33;18.85;;;2.75;;
1402;SDS011;696;48.546;9.896;2022-09-01T09:39:13;3.83;;;2.60;;
1402;SDS011;696;48.546;9.896;2022-09-01T09:41:42;4.43;;;3.03;;
1402;SDS011;696;48.546;9.896;2022-09-01T09:44:23;4.68;;;3.30;;
1402;SDS011;696;48.546;9.896;2022-09-01T09:46:50;4.43;;;2.78;;
1402;SDS011;696;48.546;9.896;2022-09-01T09:51:50;8.20;;;2.90;;
1402;SDS011;696;48.546;9.896;2022-09-01T09:54:19;3.85;;;2.60;;
1402;SDS011;696;48.546;9.896;2022-09-01T09:56:45;3.97;;;2.78;;
1402;SDS011;696;48.546;9.896;2022-09-01T09:59:19;4.32;;;2.75;;
1402;SDS011;696;48.546;9.896;2022-09-01T10:01:47;4.20;;;3.15;;
1402;SDS011;696;48.546;9.896;2022-09-01T10:04:30;5.20;;;3.40;;
1402;SDS011;696;48.546;9.896;2022-09-01T10:07:21;4.10;;;2.78;;
1402;SDS011;696;48.546;9.896;2022-09-01T10:09:47;5.57;;;2.65;;
1402;SDS011;696;48.546;9.896;2022-09-01T10:12:13;3.70;;;2.58;;
1402;SDS011;696;48.546;9.896;2022-09-01T10:14:47;2.70;;;2.47;;
1402;SDS011;696;48.546;9.896;2022-09-01T10:17:18;4.10;;;2.08;;
1402;SDS011;696;48.546;9.896;2022-09-01T10:19:57;5.07;;;3.15;;
1402;SDS011;696;48.546;9.896;2022-09-01T10:22:28;2.50;;;1.83;;
1402;SDS011;696;48.546;9.896;2022-09-01T10:24:55;3.83;;;2.83;;
1402;SDS011;696;48.546;9.896;2022-09-01T10:27:24;3.13;;;1.98;;
1402;SDS011;696;48.546;9.896;2022-09-01T10:30:05;10.40;;;2.67;;
1402;SDS011;696;48.546;9.896;2022-09-01T10:32:36;2.55;;;1.92;;
1402;SDS011;696;48.546;9.896;2022-09-01T10:35:05;3.85;;;1.92;;
1402;SDS011;696;48.546;9.896;2022-09-01T10:37:32;3.17;;;2.15;;
1402;SDS011;696;48.546;9.896;2022-09-01T10:40:12;4.13;;;2.08;;
1402;SDS011;696;48.546;9.896;2022-09-01T10:42:38;4.70;;;2.30;;
1402;SDS011;696;48.546;9.896;2022-09-01T10:45:06;3.88;;;2.85;;
1402;SDS011;696;48.546;9.896;2022-09-01T10:47:41;3.58;;;2.22;;
1402;SDS011;696;48.546;9.896;2022-09-01T10:50:29;4.40;;;2.17;;
1402;SDS011;696;48.546;9.896;2022-09-01T10:56:08;2.60;;;2.15;;
1402;SDS011;696;48.546;9.896;2022-09-01T10:58:48;5.47;;;2.70;;
1402;SDS011;696;48.546;9.896;2022-09-01T11:04:08;2.83;;;1.60;;
1402;SDS011;696;48.546;9.896;2022-09-01T11:06:42;3.45;;;2.20;;
1402;SDS011;696;48.546;9.896;2022-09-01T11:09:22;4.25;;;1.98;;
1402;SDS011;696;48.546;9.896;2022-09-01T11:14:46;3.53;;;2.15;;
1402;SDS011;696;48.546;9.896;2022-09-01T11:22:30;4.75;;;2.47;;
1402;SDS011;696;48.546;9.896;2022-09-01T11:30:15;3.20;;;2.15;;
1402;SDS011;696;48.546;9.896;2022-09-01T11:32:48;2.50;;;1.50;;
1402;SDS011;696;48.546;9.896;2022-09-01T11:35:19;6.60;;;1.55;;
1402;SDS011;696;48.546;9.896;2022-09-01T11:37:54;8.13;;;2.05;;
1402;SDS011;696;48.546;9.896;2022-09-01T11:40:22;2.15;;;1.77;;
1402;SDS011;696;48.546;9.896;2022-09-01T11:42:49;2.47;;;1.65;;
1402;SDS011;696;48.546;9.896;2022-09-01T11:48:10;5.13;;;2.78;;
1402;SDS011;696;48.546;9.896;2022-09-01T11:50:38;8.90;;;2.53;;
1402;SDS011;696;48.546;9.896;2022-09-01T11:55:39;2.20;;;1.67;;
1402;SDS011;696;48.546;9.896;2022-09-01T11:58:11;3.83;;;2.40;;
1402;SDS011;696;48.546;9.896;2022-09-01T12:00:40;4.43;;;2.25;;
1402;SDS011;696;48.546;9.896;2022-09-01T12:05:45;5.40;;;1.90;;
1402;SDS011;696;48.546;9.896;2022-09-01T12:08:12;2.35;;;1.52;;
1402;SDS011;696;48.546;9.896;2022-09-01T12:10:39;2.58;;;2.15;;
1402;SDS011;696;48.546;9.896;2022-09-01T12:13:20;9.70;;;2.40;;
1402;SDS011;696;48.546;9.896;2022-09-01T12:15:57;11.20;;;2.47;;
1402;SDS011;696;48.546;9.896;2022-09-01T12:18:26;2.40;;;1.98;;
1402;SDS011;696;48.546;9.896;2022-09-01T12:20:54;2.17;;;1.98;;
1402;SDS011;696;48.546;9.896;2022-09-01T12:23:25;2.42;;;1.98;;
1402;SDS011;696;48.546;9.896;2022-09-01T12:26:32;3.30;;;2.00;;
1402;SDS011;696;48.546;9.896;2022-09-01T12:28:51;3.30;;;2.20;;
1402;SDS011;696;48.546;9.896;2022-09-01T12:31:24;2.40;;;1.67;;
1402;SDS011;696;48.546;9.896;2022-09-01T12:33:50;2.08;;;1.48;;
1402;SDS011;696;48.546;9.896;2022-09-01T12:38:56;2.10;;;1.27;;
1402;SDS011;696;48.546;9.896;2022-09-01T12:41:41;6.47;;;1.88;;
1402;SDS011;696;48.546;9.896;2022-09-01T12:44:26;1.45;;;1.33;;
1402;SDS011;696;48.546;9.896;2022-09-01T12:46:54;6.65;;;1.58;;
1402;SDS011;696;48.546;9.896;2022-09-01T12:49:25;2.83;;;1.83;;
1402;SDS011;696;48.546;9.896;2022-09-01T12:52:07;4.32;;;2.13;;
1402;SDS011;696;48.546;9.896;2022-09-01T12:54:34;4.25;;;2.22;;
1402;SDS011;696;48.546;9.896;2022-09-01T12:56:59;3.92;;;1.60;;
1402;SDS011;696;48.546;9.896;2022-09-01T12:59:25;1.83;;;1.40;;
1402;SDS011;696;48.546;9.896;2022-09-01T13:01:51;5.43;;;1.20;;
1402;SDS011;696;48.546;9.896;2022-09-01T13:06:45;1.42;;;1.25;;
1402;SDS011;696;48.546;9.896;2022-09-01T13:09:10;1.98;;;1.45;;
1402;SDS011;696;48.546;9.896;2022-09-01T13:11:36;2.70;;;1.65;;
1402;SDS011;696;48.546;9.896;2022-09-01T13:14:01;1.90;;;1.50;;
1402;SDS011;696;48.546;9.896;2022-09-01T13:16:27;5.10;;;1.80;;
1402;SDS011;696;48.546;9.896;2022-09-01T13:18:52;2.05;;;1.23;;
1402;SDS011;696;48.546;9.896;2022-09-01T13:21:18;2.63;;;1.25;;
1402;SDS011;696;48.546;9.896;2022-09-01T13:23:43;4.85;;;1.30;;
1402;SDS011;696;48.546;9.896;2022-09-01T13:26:10;1.85;;;0.98;;
1402;SDS011;696;48.546;9.896;2022-09-01T13:28:36;1.80;;;1.30;;
1402;SDS011;696;48.546;9.896;2022-09-01T13:31:02;4.55;;;1.63;;
1402;SDS011;696;48.546;9.896;2022-09-01T13:33:29;2.35;;;1.58;;
1402;SDS011;696;48.546;9.896;2022-09-01T13:35:55;2.15;;;1.27;;
1402;SDS011;696;48.546;9.896;2022-09-01T13:38:20;1.63;;;1.25;;
1402;SDS011;696;48.546;9.896;2022-09-01T13:40:46;2.95;;;1.55;;
1402;SDS011;696;48.546;9.896;2022-09-01T13:43:13;2.53;;;1.33;;
1402;SDS011;696;48.546;9.896;2022-09-01T13:45:39;3.95;;;1.40;;
1402;SDS011;696;48.546;9.896;2022-09-01T13:48:05;1.10;;;0.98;;
1402;SDS011;696;48.546;9.896;2022-09-01T13:50:31;1.30;;;1.15;;
1402;SDS011;696;48.546;9.896;2022-09-01T13:52:57;1.42;;;1.20;;
1402;SDS011;696;48.546;9.896;2022-09-01T13:55:26;2.00;;;1.52;;
1402;SDS011;696;48.546;9.896;2022-09-01T13:57:53;2.60;;;1.55;;
1402;SDS011;696;48.546;9.896;2022-09-01T14:00:21;2.45;;;1.55;;
1402;SDS011;696;48.546;9.896;2022-09-01T14:02:49;2.45;;;1.13;;
1402;SDS011;696;48.546;9.896;2022-09-01T14:05:25;1.60;;;1.23;;
1402;SDS011;696;48.546;9.896;2022-09-01T14:07:52;5.70;;;1.40;;
1402;SDS011;696;48.546;9.896;2022-09-01T14:10:18;2.15;;;1.50;;
1402;SDS011;696;48.546;9.896;2022-09-01T14:12:44;2.28;;;1.30;;
1402;SDS011;696;48.546;9.896;2022-09-01T14:15:10;4.70;;;1.60;;
1402;SDS011;696;48.546;9.896;2022-09-01T14:17:37;2.13;;;1.35;;
1402;SDS011;696;48.546;9.896;2022-09-01T14:20:03;2.22;;;1.27;;
1402;SDS011;696;48.546;9.896;2022-09-01T14:22:31;3.20;;;1.88;;
1402;SDS011;696;48.546;9.896;2022-09-01T14:24:57;1.58;;;1.33;;
1402;SDS011;696;48.546;9.896;2022-09-01T14:27:23;1.52;;;1.38;;
1402;SDS011;696;48.546;9.896;2022-09-01T14:29:49;1.42;;;1.02;;
1402;SDS011;696;48.546;9.896;2022-09-01T14:32:15;2.95;;;1.80;;
1402;SDS011;696;48.546;9.896;2022-09-01T14:34:41;1.23;;;1.10;;
1402;SDS011;696;48.546;9.896;2022-09-01T14:37:07;6.88;;;1.30;;
1402;SDS011;696;48.546;9.896;2022-09-01T14:39:32;2.20;;;1.20;;
1402;SDS011;696;48.546;9.896;2022-09-01T14:41:58;2.13;;;0.93;;
1402;SDS011;696;48.546;9.896;2022-09-01T14:44:23;1.80;;;0.98;;
1402;SDS011;696;48.546;9.896;2022-09-01T14:46:48;3.17;;;1.20;;
1402;SDS011;696;48.546;9.896;2022-09-01T14:49:14;2.13;;;1.45;;
1402;SDS011;696;48.546;9.896;2022-09-01T14:51:40;2.38;;;1.55;;
1402;SDS011;696;48.546;9.896;2022-09-01T14:54:06;2.92;;;1.50;;
1402;SDS011;696;48.546;9.896;2022-09-01T14:56:32;1.60;;;1.42;;
1402;SDS011;696;48.546;9.896;2022-09-01T14:58:57;2.67;;;1.90;;
1402;SDS011;696;48.546;9.896;2022-09-01T15:01:24;1.58;;;1.15;;
1402;SDS011;696;48.546;9.896;2022-09-01T15:03:51;2.75;;;1.83;;
1402;SDS011;696;48.546;9.896;2022-09-01T15:06:17;1.85;;;1.30;;
1402;SDS011;696;48.546;9.896;2022-09-01T15:08:44;2.55;;;1.58;;
1402;SDS011;696;48.546;9.896;2022-09-01T15:11:11;1.35;;;1.20;;
1402;SDS011;696;48.546;9.896;2022-09-01T15:13:40;1.75;;;1.20;;
1402;SDS011;696;48.546;9.896;2022-09-01T15:19:05;1.60;;;1.27;;
1402;SDS011;696;48.546;9.896;2022-09-01T15:21:32;1.73;;;1.10;;
1402;SDS011;696;48.546;9.896;2022-09-01T15:23:58;1.55;;;1.10;;
1402;SDS011;696;48.546;9.896;2022-09-01T15:26:25;1.70;;;1.23;;
1402;SDS011;696;48.546;9.896;2022-09-01T15:28:50;1.25;;;1.15;;
1402;SDS011;696;48.546;9.896;2022-09-01T15:31:16;2.28;;;1.55;;
1402;SDS011;696;48.546;9.896;2022-09-01T15:33:43;1.98;;;1.13;;
1402;SDS011;696;48.546;9.896;2022-09-01T15:36:13;2.47;;;1.45;;
1402;SDS011;696;48.546;9.896;2022-09-01T15:38:40;2.35;;;1.65;;
1402;SDS011;696;48.546;9.896;2022-09-01T15:41:05;2.53;;;1.48;;
1402;SDS011;696;48.546;9.896;2022-09-01T15:43:31;2.28;;;1.50;;
1402;SDS011;696;48.546;9.896;2022-09-01T15:45:57;3.42;;;1.35;;
1402;SDS011;696;48.546;9.896;2022-09-01T15:48:24;1.60;;;1.30;;
1402;SDS011;696;48.546;9.896;2022-09-01T15:50:51;9.18;;;1.38;;
1402;SDS011;696;48.546;9.896;2022-09-01T15:53:18;3.22;;;2.17;;
1402;SDS011;696;48.546;9.896;2022-09-01T15:55:44;2.53;;;1.30;;
1402;SDS011;696;48.546;9.896;2022-09-01T15:58:12;2.63;;;1.58;;
1402;SDS011;696;48.546;9.896;2022-09-01T16:00:40;1.83;;;1.45;;
1402;SDS011;696;48.546;9.896;2022-09-01T16:03:06;1.98;;;1.30;;
1402;SDS011;696;48.546;9.896;2022-09-01T16:05:33;1.98;;;1.50;;
1402;SDS011;696;48.546;9.896;2022-09-01T16:07:59;2.15;;;1.27;;
1402;SDS011;696;48.546;9.896;2022-09-01T16:10:25;2.08;;;1.33;;
1402;SDS011;696;48.546;9.896;2022-09-01T16:12:53;8.27;;;1.80;;
1402;SDS011;696;48.546;9.896;2022-09-01T16:15:20;1.85;;;1.00;;
1402;SDS011;696;48.546;9.896;2022-09-01T16:20:40;3.40;;;1.63;;
1402;SDS011;696;48.546;9.896;2022-09-01T16:23:20;2.20;;;1.50;;
1402;SDS011;696;48.546;9.896;2022-09-01T16:25:47;2.50;;;1.52;;
1402;SDS011;696;48.546;9.896;2022-09-01T16:30:44;2.22;;;1.17;;
1402;SDS011;696;48.546;9.896;2022-09-01T16:33:11;1.20;;;0.90;;
1402;SDS011;696;48.546;9.896;2022-09-01T16:35:46;2.53;;;1.40;;
1402;SDS011;696;48.546;9.896;2022-09-01T16:38:27;1.52;;;1.30;;
1402;SDS011;696;48.546;9.896;2022-09-01T16:46:31;2.35;;;1.52;;
1402;SDS011;696;48.546;9.896;2022-09-01T17:00:00;3.25;;;1.85;;
1402;SDS011;696;48.546;9.896;2022-09-01T17:13:36;1.70;;;1.40;;
1402;SDS011;696;48.546;9.896;2022-09-01T17:18:53;4.03;;;1.75;;
1402;SDS011;696;48.546;9.896;2022-09-01T17:23:51;1.10;;;1.00;;